sensor_id;sensor_type;location;lat;lon;timestamp;pressure;altitude;pressure_sealevel;temperature;humidity
41513;BME280;27244;59.940;30.280;2022-11-15T00:02:22;101742.59;;;23.59;33.50
41513;BME280;27244;59.940;30.280;2022-11-15T00:05:08;101745.84;;;23.57;33.18
41513;BME280;27244;59.940;30.280;2022-11-15T00:07:53;101735.44;;;23.54;32.95
41513;BME280;27244;59.940;30.280;2022-11-15T00:10:39;101724.13;;;23.58;32.93
41513;BME280;27244;59.940;30.280;2022-11-15T00:13:24;101722.50;;;23.57;33.02
41513;BME280;27244;59.940;30.280;2022-11-15T00:16:10;101720.50;;;23.57;32.87
41513;BME280;27244;59.940;30.280;2022-11-15T00:18:57;101721.31;;;23.58;32.91
41513;BME280;27244;59.940;30.280;2022-11-15T00:21:42;101702.81;;;23.57;32.86
41513;BME280;27244;59.940;30.280;2022-11-15T00:24:28;101693.19;;;23.54;33.01
41513;BME280;27244;59.940;30.280;2022-11-15T00:27:14;101686.31;;;23.55;32.83
41513;BME280;27244;59.940;30.280;2022-11-15T00:29:59;101685.53;;;23.55;32.71
41513;BME280;27244;59.940;30.280;2022-11-15T00:32:45;101677.09;;;23.55;32.70
41513;BME280;27244;59.940;30.280;2022-11-15T00:35:32;101673.47;;;23.54;32.67
41513;BME280;27244;59.940;30.280;2022-11-15T00:38:18;101650.97;;;23.50;32.52
41513;BME280;27244;59.940;30.280;2022-11-15T00:41:05;101659.38;;;23.54;32.99
41513;BME280;27244;59.940;30.280;2022-11-15T00:43:50;101651.34;;;23.52;32.40
41513;BME280;27244;59.940;30.280;2022-11-15T00:46:36;101646.13;;;23.55;32.19
41513;BME280;27244;59.940;30.280;2022-11-15T00:49:21;101635.25;;;23.53;32.57
41513;BME280;27244;59.940;30.280;2022-11-15T00:52:08;101635.63;;;23.55;32.37
41513;BME280;27244;59.940;30.280;2022-11-15T00:54:54;101614.75;;;23.52;32.14
41513;BME280;27244;59.940;30.280;2022-11-15T00:57:39;101604.28;;;23.53;32.33
41513;BME280;27244;59.940;30.280;2022-11-15T01:00:25;101609.09;;;23.52;32.10
41513;BME280;27244;59.940;30.280;2022-11-15T01:03:11;101606.28;;;23.52;31.91
41513;BME280;27244;59.940;30.280;2022-11-15T01:05:58;101601.81;;;23.55;32.02
41513;BME280;27244;59.940;30.280;2022-11-15T01:08:45;101597.84;;;23.52;32.00
41513;BME280;27244;59.940;30.280;2022-11-15T01:11:31;101586.56;;;23.52;31.92
41513;BME280;27244;59.940;30.280;2022-11-15T01:14:16;101584.56;;;23.53;31.71
41513;BME280;27244;59.940;30.280;2022-11-15T01:17:02;101580.13;;;23.52;32.00
41513;BME280;27244;59.940;30.280;2022-11-15T01:19:48;101576.53;;;23.51;31.59
41513;BME280;27244;59.940;30.280;2022-11-15T01:22:34;101572.94;;;23.51;31.81
41513;BME280;27244;59.940;30.280;2022-11-15T01:25:23;101558.84;;;23.51;31.74
41513;BME280;27244;59.940;30.280;2022-11-15T01:28:09;101559.25;;;23.49;31.80
41513;BME280;27244;59.940;30.280;2022-11-15T01:30:57;101553.59;;;23.53;31.71
41513;BME280;27244;59.940;30.280;2022-11-15T01:33:43;101549.59;;;23.50;31.85
41513;BME280;27244;59.940;30.280;2022-11-15T01:36:29;101556.03;;;23.51;31.54
41513;BME280;27244;59.940;30.280;2022-11-15T01:39:15;101545.59;;;23.48;31.88
41513;BME280;27244;59.940;30.280;2022-11-15T01:42:02;101547.94;;;23.53;31.82
41513;BME280;27244;59.940;30.280;2022-11-15T01:44:49;101537.53;;;23.50;31.59
41513;BME280;27244;59.940;30.280;2022-11-15T01:47:37;101530.69;;;23.51;31.61
41513;BME280;27244;59.940;30.280;2022-11-15T01:50:27;101525.06;;;23.51;31.46
41513;BME280;27244;59.940;30.280;2022-11-15T01:53:15;101512.19;;;23.50;31.54
41513;BME280;27244;59.940;30.280;2022-11-15T01:56:02;101515.81;;;23.50;31.48
41513;BME280;27244;59.940;30.280;2022-11-15T01:58:52;101515.00;;;23.50;31.55
41513;BME280;27244;59.940;30.280;2022-11-15T02:01:39;101507.41;;;23.47;31.51
41513;BME280;27244;59.940;30.280;2022-11-15T02:04:27;101505.75;;;23.49;31.62
41513;BME280;27244;59.940;30.280;2022-11-15T02:07:15;101485.25;;;23.49;31.19
41513;BME280;27244;59.940;30.280;2022-11-15T02:10:07;101483.22;;;23.49;31.69
41513;BME280;27244;59.940;30.280;2022-11-15T02:12:54;101476.00;;;23.48;31.23
41513;BME280;27244;59.940;30.280;2022-11-15T02:15:52;101469.91;;;23.53;31.30
41513;BME280;27244;59.940;30.280;2022-11-15T02:18:46;101460.72;;;23.49;31.50
41513;BME280;27244;59.940;30.280;2022-11-15T02:21:38;101457.88;;;23.49;31.22
41513;BME280;27244;59.940;30.280;2022-11-15T02:24:42;101451.41;;;23.52;31.24
41513;BME280;27244;59.940;30.280;2022-11-15T02:31:11;101438.59;;;23.48;31.18
41513;BME280;27244;59.940;30.280;2022-11-15T02:34:05;101436.16;;;23.50;31.21
41513;BME280;27244;59.940;30.280;2022-11-15T02:36:59;101437.03;;;23.47;31.30
41513;BME280;27244;59.940;30.280;2022-11-15T02:39:51;101430.59;;;23.46;31.25
41513;BME280;27244;59.940;30.280;2022-11-15T02:42:42;101431.00;;;23.45;31.06
41513;BME280;27244;59.940;30.280;2022-11-15T02:45:50;101420.19;;;23.43;31.17
41513;BME280;27244;59.940;30.280;2022-11-15T02:48:41;101422.56;;;23.45;31.25
41513;BME280;27244;59.940;30.280;2022-11-15T02:51:28;101410.94;;;23.43;31.10
41513;BME280;27244;59.940;30.280;2022-11-15T02:54:19;101410.50;;;23.44;31.05
41513;BME280;27244;59.940;30.280;2022-11-15T02:57:10;101396.06;;;23.42;31.06
41513;BME280;27244;59.940;30.280;2022-11-15T03:00:08;101401.56;;;23.49;31.18
41513;BME280;27244;59.940;30.280;2022-11-15T03:03:07;101404.03;;;23.47;31.02
41513;BME280;27244;59.940;30.280;2022-11-15T03:06:04;101395.13;;;23.49;31.08
41513;BME280;27244;59.940;30.280;2022-11-15T03:09:03;101385.47;;;23.50;31.17
41513;BME280;27244;59.940;30.280;2022-11-15T03:11:57;101382.28;;;23.48;30.93
41513;BME280;27244;59.940;30.280;2022-11-15T03:14:53;101374.28;;;23.46;30.99
41513;BME280;27244;59.940;30.280;2022-11-15T03:17:46;101367.03;;;23.45;30.99
41513;BME280;27244;59.940;30.280;2022-11-15T03:20:35;101372.72;;;23.42;30.72
41513;BME280;27244;59.940;30.280;2022-11-15T03:23:22;101363.88;;;23.43;30.69
41513;BME280;27244;59.940;30.280;2022-11-15T03:26:12;101356.22;;;23.44;30.82
41513;BME280;27244;59.940;30.280;2022-11-15T03:29:02;101351.81;;;23.43;30.78
41513;BME280;27244;59.940;30.280;2022-11-15T03:31:52;101349.41;;;23.41;30.93
41513;BME280;27244;59.940;30.280;2022-11-15T03:34:41;101339.31;;;23.44;30.74
41513;BME280;27244;59.940;30.280;2022-11-15T03:37:33;101335.25;;;23.45;30.86
41513;BME280;27244;59.940;30.280;2022-11-15T03:40:24;101330.88;;;23.44;30.79
41513;BME280;27244;59.940;30.280;2022-11-15T03:43:23;101335.66;;;23.47;30.93
41513;BME280;27244;59.940;30.280;2022-11-15T03:46:13;101335.72;;;23.43;30.84
41513;BME280;27244;59.940;30.280;2022-11-15T03:49:04;101330.88;;;23.44;30.73
41513;BME280;27244;59.940;30.280;2022-11-15T03:51:51;101326.50;;;23.39;31.09
41513;BME280;27244;59.940;30.280;2022-11-15T03:54:37;101329.31;;;23.39;30.69
41513;BME280;27244;59.940;30.280;2022-11-15T03:57:33;101323.69;;;23.39;30.94
41513;BME280;27244;59.940;30.280;2022-11-15T04:00:19;101322.88;;;23.39;30.69
41513;BME280;27244;59.940;30.280;2022-11-15T04:03:04;101322.88;;;23.39;30.74
41513;BME280;27244;59.940;30.280;2022-11-15T04:05:51;101312.47;;;23.36;30.64
41513;BME280;27244;59.940;30.280;2022-11-15T04:08:36;101320.06;;;23.39;30.68
41513;BME280;27244;59.940;30.280;2022-11-15T04:11:22;101312.84;;;23.38;30.44
41513;BME280;27244;59.940;30.280;2022-11-15T04:14:08;101315.66;;;23.38;30.48
41513;BME280;27244;59.940;30.280;2022-11-15T04:16:54;101317.25;;;23.39;30.77
41513;BME280;27244;59.940;30.280;2022-11-15T04:19:39;101316.88;;;23.37;30.50
41513;BME280;27244;59.940;30.280;2022-11-15T04:22:42;101310.03;;;23.38;30.75
41513;BME280;27244;59.940;30.280;2022-11-15T04:25:46;101307.19;;;23.38;30.59
41513;BME280;27244;59.940;30.280;2022-11-15T04:28:34;101302.78;;;23.37;30.67
41513;BME280;27244;59.940;30.280;2022-11-15T04:31:41;101298.75;;;23.38;30.33
41513;BME280;27244;59.940;30.280;2022-11-15T04:34:26;101301.22;;;23.36;30.46
41513;BME280;27244;59.940;30.280;2022-11-15T04:37:12;101294.34;;;23.37;30.45
41513;BME280;27244;59.940;30.280;2022-11-15T04:39:59;101281.13;;;23.34;30.44
41513;BME280;27244;59.940;30.280;2022-11-15T04:42:44;101287.94;;;23.36;30.39
41513;BME280;27244;59.940;30.280;2022-11-15T04:45:30;101284.31;;;23.36;30.42
41513;BME280;27244;59.940;30.280;2022-11-15T04:48:17;101283.09;;;23.37;30.45
41513;BME280;27244;59.940;30.280;2022-11-15T04:51:03;101285.13;;;23.36;30.30
41513;BME280;27244;59.940;30.280;2022-11-15T04:53:48;101276.31;;;23.34;30.18
41513;BME280;27244;59.940;30.280;2022-11-15T04:56:34;101276.69;;;23.36;30.36
41513;BME280;27244;59.940;30.280;2022-11-15T04:59:19;101275.09;;;23.35;30.19
41513;BME280;27244;59.940;30.280;2022-11-15T05:02:05;101272.28;;;23.35;30.33
41513;BME280;27244;59.940;30.280;2022-11-15T05:04:52;101272.28;;;23.35;30.40
41513;BME280;27244;59.940;30.280;2022-11-15T05:07:36;101265.84;;;23.35;30.32
41513;BME280;27244;59.940;30.280;2022-11-15T05:10:21;101265.84;;;23.35;30.24
41513;BME280;27244;59.940;30.280;2022-11-15T05:13:07;101265.84;;;23.35;30.25
41513;BME280;27244;59.940;30.280;2022-11-15T05:15:52;101263.03;;;23.35;30.29
41513;BME280;27244;59.940;30.280;2022-11-15T05:18:37;101264.25;;;23.34;30.34
41513;BME280;27244;59.940;30.280;2022-11-15T05:21:26;101256.66;;;23.31;30.20
41513;BME280;27244;59.940;30.280;2022-11-15T05:24:11;101257.81;;;23.33;30.25
41513;BME280;27244;59.940;30.280;2022-11-15T05:26:57;101260.22;;;23.35;30.06
41513;BME280;27244;59.940;30.280;2022-11-15T05:29:42;101252.19;;;23.33;30.04
41513;BME280;27244;59.940;30.280;2022-11-15T05:32:28;101252.25;;;23.30;30.10
41513;BME280;27244;59.940;30.280;2022-11-15T05:35:17;101261.81;;;23.36;30.33
41513;BME280;27244;59.940;30.280;2022-11-15T05:38:05;101259.00;;;23.36;30.13
41513;BME280;27244;59.940;30.280;2022-11-15T05:40:51;101250.97;;;23.34;30.09
41513;BME280;27244;59.940;30.280;2022-11-15T05:43:38;101249.75;;;23.35;29.97
41513;BME280;27244;59.940;30.280;2022-11-15T05:46:26;101252.19;;;23.33;29.80
41513;BME280;27244;59.940;30.280;2022-11-15T05:49:14;101248.09;;;23.38;30.06
41513;BME280;27244;59.940;30.280;2022-11-15T05:52:03;101247.72;;;23.36;30.12
41513;BME280;27244;59.940;30.280;2022-11-15T05:54:52;101251.34;;;23.36;30.06
41513;BME280;27244;59.940;30.280;2022-11-15T05:57:37;101246.63;;;23.30;30.12
41513;BME280;27244;59.940;30.280;2022-11-15T06:00:23;101252.97;;;23.34;29.93
41513;BME280;27244;59.940;30.280;2022-11-15T06:03:09;101257.03;;;23.33;30.00
41513;BME280;27244;59.940;30.280;2022-11-15T06:05:54;101251.41;;;23.33;29.64
41513;BME280;27244;59.940;30.280;2022-11-15T06:08:40;101252.19;;;23.33;29.88
41513;BME280;27244;59.940;30.280;2022-11-15T06:11:26;101255.78;;;23.34;29.85
41513;BME280;27244;59.940;30.280;2022-11-15T06:14:12;101251.81;;;23.31;29.75
41513;BME280;27244;59.940;30.280;2022-11-15T06:16:58;101250.97;;;23.34;29.98
41513;BME280;27244;59.940;30.280;2022-11-15T06:19:43;101260.53;;;23.40;30.15
41513;BME280;27244;59.940;30.280;2022-11-15T06:22:29;101245.66;;;23.40;30.43
41513;BME280;27244;59.940;30.280;2022-11-15T06:25:15;101256.81;;;23.47;30.55
41513;BME280;27244;59.940;30.280;2022-11-15T06:28:02;101252.75;;;23.48;30.74
41513;BME280;27244;59.940;30.280;2022-11-15T06:30:48;101255.16;;;23.49;31.03
41513;BME280;27244;59.940;30.280;2022-11-15T06:33:34;101251.91;;;23.51;31.16
41513;BME280;27244;59.940;30.280;2022-11-15T06:36:19;101260.28;;;23.55;31.17
41513;BME280;27244;59.940;30.280;2022-11-15T06:39:05;101254.22;;;23.56;31.38
41513;BME280;27244;59.940;30.280;2022-11-15T06:41:51;101254.22;;;23.56;31.50
41513;BME280;27244;59.940;30.280;2022-11-15T06:44:37;101260.56;;;23.60;31.62
41513;BME280;27244;59.940;30.280;2022-11-15T06:47:23;101252.19;;;23.57;31.72
41513;BME280;27244;59.940;30.280;2022-11-15T06:50:09;101251.31;;;23.60;31.91
41513;BME280;27244;59.940;30.280;2022-11-15T06:52:54;101253.72;;;23.61;31.95
41513;BME280;27244;59.940;30.280;2022-11-15T06:55:39;101251.25;;;23.63;32.04
41513;BME280;27244;59.940;30.280;2022-11-15T06:58:25;101255.31;;;23.62;32.44
41513;BME280;27244;59.940;30.280;2022-11-15T07:01:12;101255.66;;;23.64;32.41
41513;BME280;27244;59.940;30.280;2022-11-15T07:03:58;101254.06;;;23.63;32.39
41513;BME280;27244;59.940;30.280;2022-11-15T07:06:46;101258.41;;;23.68;32.51
41513;BME280;27244;59.940;30.280;2022-11-15T07:09:32;101254.81;;;23.67;32.66
41513;BME280;27244;59.940;30.280;2022-11-15T07:12:18;101261.22;;;23.68;32.69
41513;BME280;27244;59.940;30.280;2022-11-15T07:15:04;101257.63;;;23.67;32.83
41513;BME280;27244;59.940;30.280;2022-11-15T07:17:51;101268.47;;;23.69;33.04
41513;BME280;27244;59.940;30.280;2022-11-15T07:20:37;101265.28;;;23.67;33.23
41513;BME280;27244;59.940;30.280;2022-11-15T07:23:23;101260.00;;;23.69;33.32
41513;BME280;27244;59.940;30.280;2022-11-15T07:26:09;101267.28;;;23.66;33.29
41513;BME280;27244;59.940;30.280;2022-11-15T07:28:54;101261.22;;;23.68;33.40
41513;BME280;27244;59.940;30.280;2022-11-15T07:31:40;101259.28;;;23.65;33.63
41513;BME280;27244;59.940;30.280;2022-11-15T07:34:27;101256.53;;;23.61;33.70
41513;BME280;27244;59.940;30.280;2022-11-15T07:37:12;101267.28;;;23.66;33.98
41513;BME280;27244;59.940;30.280;2022-11-15T07:39:58;101264.53;;;23.63;34.08
41513;BME280;27244;59.940;30.280;2022-11-15T07:42:43;101269.75;;;23.64;34.20
41513;BME280;27244;59.940;30.280;2022-11-15T07:45:42;101272.91;;;23.66;34.58
41513;BME280;27244;59.940;30.280;2022-11-15T07:48:28;101266.59;;;23.62;34.52
41513;BME280;27244;59.940;30.280;2022-11-15T07:51:16;101275.75;;;23.66;34.66
41513;BME280;27244;59.940;30.280;2022-11-15T07:54:02;101275.81;;;23.63;34.83
41513;BME280;27244;59.940;30.280;2022-11-15T07:56:47;101270.97;;;23.63;34.63
41513;BME280;27244;59.940;30.280;2022-11-15T07:59:33;101271.41;;;23.62;35.24
41513;BME280;27244;59.940;30.280;2022-11-15T08:02:19;101270.97;;;23.63;34.95
41513;BME280;27244;59.940;30.280;2022-11-15T08:05:05;101274.97;;;23.66;35.20
41513;BME280;27244;59.940;30.280;2022-11-15T08:07:52;101276.53;;;23.67;35.23
41513;BME280;27244;59.940;30.280;2022-11-15T08:10:39;101271.78;;;23.64;35.25
41513;BME280;27244;59.940;30.280;2022-11-15T08:13:25;101273.78;;;23.63;35.35
41513;BME280;27244;59.940;30.280;2022-11-15T08:16:10;101270.97;;;23.63;35.71
41513;BME280;27244;59.940;30.280;2022-11-15T08:18:56;101279.00;;;23.65;35.68
41513;BME280;27244;59.940;30.280;2022-11-15T08:21:41;101284.25;;;23.63;35.64
41513;BME280;27244;59.940;30.280;2022-11-15T08:24:28;101282.63;;;23.65;35.77
41513;BME280;27244;59.940;30.280;2022-11-15T08:27:14;101284.63;;;23.65;35.60
41513;BME280;27244;59.940;30.280;2022-11-15T08:29:59;101282.25;;;23.63;35.79
41513;BME280;27244;59.940;30.280;2022-11-15T08:32:45;101279.06;;;23.61;35.71
41513;BME280;27244;59.940;30.280;2022-11-15T08:35:31;101287.53;;;23.61;36.02
41513;BME280;27244;59.940;30.280;2022-11-15T08:38:17;101285.84;;;23.64;36.19
41513;BME280;27244;59.940;30.280;2022-11-15T08:41:05;101292.63;;;23.66;36.24
41513;BME280;27244;59.940;30.280;2022-11-15T08:43:50;101286.66;;;23.64;36.34
41513;BME280;27244;59.940;30.280;2022-11-15T08:46:36;101289.88;;;23.63;36.16
41513;BME280;27244;59.940;30.280;2022-11-15T08:49:21;101287.53;;;23.61;36.20
41513;BME280;27244;59.940;30.280;2022-11-15T08:52:07;101284.63;;;23.65;36.37
41513;BME280;27244;59.940;30.280;2022-11-15T08:54:52;101289.53;;;23.61;36.40
41513;BME280;27244;59.940;30.280;2022-11-15T08:57:39;101297.13;;;23.64;36.34
41513;BME280;27244;59.940;30.280;2022-11-15T09:00:24;101308.09;;;23.58;36.74
41513;BME280;27244;59.940;30.280;2022-11-15T09:03:10;101294.44;;;23.57;37.00
41513;BME280;27244;59.940;30.280;2022-11-15T09:05:55;101296.44;;;23.56;36.84
41513;BME280;27244;59.940;30.280;2022-11-15T09:08:41;101300.47;;;23.55;36.89
41513;BME280;27244;59.940;30.280;2022-11-15T09:11:26;101300.13;;;23.53;36.92
41513;BME280;27244;59.940;30.280;2022-11-15T09:14:14;101296.50;;;23.52;36.73
41513;BME280;27244;59.940;30.280;2022-11-15T09:16:59;101301.00;;;23.50;37.18
41513;BME280;27244;59.940;30.280;2022-11-15T09:19:45;101301.06;;;23.46;37.15
41513;BME280;27244;59.940;30.280;2022-11-15T09:22:30;101297.03;;;23.47;37.33
41513;BME280;27244;59.940;30.280;2022-11-15T09:25:16;101294.97;;;23.48;37.01
41513;BME280;27244;59.940;30.280;2022-11-15T09:28:05;101300.13;;;23.53;37.63
41513;BME280;27244;59.940;30.280;2022-11-15T09:30:56;101296.16;;;23.50;37.43
41513;BME280;27244;59.940;30.280;2022-11-15T09:33:43;101302.22;;;23.49;37.48
41513;BME280;27244;59.940;30.280;2022-11-15T09:36:28;101307.50;;;23.47;37.79
41513;BME280;27244;59.940;30.280;2022-11-15T09:39:14;101298.66;;;23.45;38.06
41513;BME280;27244;59.940;30.280;2022-11-15T09:42:16;101293.69;;;23.52;37.63
41513;BME280;27244;59.940;30.280;2022-11-15T09:45:13;101299.78;;;23.51;37.59
41513;BME280;27244;59.940;30.280;2022-11-15T09:51:32;101307.50;;;23.47;38.05
41513;BME280;27244;59.940;30.280;2022-11-15T09:54:05;101297.38;;;23.49;38.60
41513;BME280;27244;59.940;30.280;2022-11-15T09:56:39;101313.13;;;23.47;38.19
41513;BME280;27244;59.940;30.280;2022-11-15T09:59:21;101319.44;;;23.55;38.28
41513;BME280;27244;59.940;30.280;2022-11-15T10:01:55;101319.91;;;23.49;38.17
41513;BME280;27244;59.940;30.280;2022-11-15T10:04:26;101310.31;;;23.47;38.27
41513;BME280;27244;59.940;30.280;2022-11-15T10:07:01;101320.31;;;23.48;38.18
41513;BME280;27244;59.940;30.280;2022-11-15T10:09:37;101320.31;;;23.48;38.17
41513;BME280;27244;59.940;30.280;2022-11-15T10:12:07;101327.25;;;23.43;38.16
41513;BME280;27244;59.940;30.280;2022-11-15T10:14:35;101328.06;;;23.44;38.40
41513;BME280;27244;59.940;30.280;2022-11-15T10:17:30;101323.81;;;23.56;38.01
41513;BME280;27244;59.940;30.280;2022-11-15T10:20:11;101329.97;;;23.50;39.07
41513;BME280;27244;59.940;30.280;2022-11-15T10:22:43;101328.84;;;23.44;39.34
41513;BME280;27244;59.940;30.280;2022-11-15T10:25:17;101335.66;;;23.47;39.66
41513;BME280;27244;59.940;30.280;2022-11-15T10:27:47;101327.69;;;23.42;40.13
41513;BME280;27244;59.940;30.280;2022-11-15T10:30:18;101337.31;;;23.41;40.02
41513;BME280;27244;59.940;30.280;2022-11-15T10:32:47;101335.31;;;23.41;40.52
41513;BME280;27244;59.940;30.280;2022-11-15T10:35:23;101342.91;;;23.44;40.04
41513;BME280;27244;59.940;30.280;2022-11-15T10:37:50;101345.41;;;23.39;40.64
41513;BME280;27244;59.940;30.280;2022-11-15T10:40:20;101349.41;;;23.41;39.25
41513;BME280;27244;59.940;30.280;2022-11-15T10:42:49;101345.41;;;23.39;40.22
41513;BME280;27244;59.940;30.280;2022-11-15T10:45:31;101352.16;;;23.45;40.47
41513;BME280;27244;59.940;30.280;2022-11-15T10:48:21;101351.56;;;23.57;39.92
41513;BME280;27244;59.940;30.280;2022-11-15T10:50:51;101354.19;;;23.44;40.88
41513;BME280;27244;59.940;30.280;2022-11-15T10:53:32;101350.88;;;23.49;41.18
41513;BME280;27244;59.940;30.280;2022-11-15T10:56:03;101354.19;;;23.44;43.36
41513;BME280;27244;59.940;30.280;2022-11-15T10:58:35;101354.97;;;23.45;44.42
41513;BME280;27244;59.940;30.280;2022-11-15T11:01:15;101359.69;;;23.51;44.16
41513;BME280;27244;59.940;30.280;2022-11-15T11:03:44;101371.81;;;23.48;46.26
41513;BME280;27244;59.940;30.280;2022-11-15T11:06:15;101369.06;;;23.45;46.75
41513;BME280;27244;59.940;30.280;2022-11-15T11:08:54;101375.38;;;23.52;46.30
41513;BME280;27244;59.940;30.280;2022-11-15T11:11:22;101369.50;;;23.43;47.82
41513;BME280;27244;59.940;30.280;2022-11-15T11:13:49;101375.06;;;23.47;48.00
41513;BME280;27244;59.940;30.280;2022-11-15T11:16:40;101378.56;;;23.55;47.32
41513;BME280;27244;59.940;30.280;2022-11-15T11:19:27;101378.44;;;23.62;47.05
41513;BME280;27244;59.940;30.280;2022-11-15T11:22:02;101375.63;;;23.62;47.09
41513;BME280;27244;59.940;30.280;2022-11-15T11:24:36;101384.13;;;23.58;48.48
41513;BME280;27244;59.940;30.280;2022-11-15T11:27:14;101379.59;;;23.64;47.93
41513;BME280;27244;59.940;30.280;2022-11-15T11:29:55;101390.94;;;23.61;48.99
41513;BME280;27244;59.940;30.280;2022-11-15T11:32:40;101380.53;;;23.58;49.74
41513;BME280;27244;59.940;30.280;2022-11-15T11:35:13;101386.56;;;23.56;49.67
41513;BME280;27244;59.940;30.280;2022-11-15T11:37:46;101390.94;;;23.61;48.92
41513;BME280;27244;59.940;30.280;2022-11-15T11:40:27;101394.09;;;23.63;48.83
41513;BME280;27244;59.940;30.280;2022-11-15T11:42:56;101395.84;;;23.80;46.79
41513;BME280;27244;59.940;30.280;2022-11-15T11:45:44;101397.22;;;23.68;48.14
41513;BME280;27244;59.940;30.280;2022-11-15T11:48:23;101391.72;;;23.61;46.20
41513;BME280;27244;59.940;30.280;2022-11-15T11:51:07;101403.72;;;23.65;47.30
41513;BME280;27244;59.940;30.280;2022-11-15T11:53:41;101409.03;;;23.60;48.06
41513;BME280;27244;59.940;30.280;2022-11-15T11:56:20;101401.38;;;23.60;48.02
41513;BME280;27244;59.940;30.280;2022-11-15T11:58:50;101407.09;;;23.57;48.04
41513;BME280;27244;59.940;30.280;2022-11-15T12:01:23;101402.31;;;23.53;47.33
41513;BME280;27244;59.940;30.280;2022-11-15T12:03:55;101405.06;;;23.57;46.97
41513;BME280;27244;59.940;30.280;2022-11-15T12:06:29;101414.31;;;23.58;47.50
41513;BME280;27244;59.940;30.280;2022-11-15T12:09:02;101403.53;;;23.52;45.95
41513;BME280;27244;59.940;30.280;2022-11-15T12:11:38;101414.66;;;23.60;46.16
41513;BME280;27244;59.940;30.280;2022-11-15T12:14:27;101405.00;;;23.61;45.20
41513;BME280;27244;59.940;30.280;2022-11-15T12:16:57;101409.97;;;23.53;45.47
41513;BME280;27244;59.940;30.280;2022-11-15T12:19:24;101407.56;;;23.51;44.50
41513;BME280;27244;59.940;30.280;2022-11-15T12:21:58;101416.75;;;23.56;44.36
41513;BME280;27244;59.940;30.280;2022-11-15T12:24:32;101420.81;;;23.55;44.15
41513;BME280;27244;59.940;30.280;2022-11-15T12:27:03;101414.84;;;23.49;43.66
41513;BME280;27244;59.940;30.280;2022-11-15T12:29:36;101412.78;;;23.53;43.80
41513;BME280;27244;59.940;30.280;2022-11-15T12:32:05;101423.31;;;23.49;43.58
41513;BME280;27244;59.940;30.280;2022-11-15T12:34:44;101416.81;;;23.52;43.62
41513;BME280;27244;59.940;30.280;2022-11-15T12:37:46;101423.88;;;23.64;43.25
41513;BME280;27244;59.940;30.280;2022-11-15T12:40:26;101406.22;;;23.60;43.68
41513;BME280;27244;59.940;30.280;2022-11-15T12:45:52;101408.81;;;23.50;43.03
41513;BME280;27244;59.940;30.280;2022-11-15T12:48:48;101420.25;;;23.63;42.94
41513;BME280;27244;59.940;30.280;2022-11-15T12:51:15;101421.63;;;23.51;42.82
41513;BME280;27244;59.940;30.280;2022-11-15T12:53:43;101422.44;;;23.52;43.08
41513;BME280;27244;59.940;30.280;2022-11-15T12:56:21;101426.38;;;23.58;42.82
41513;BME280;27244;59.940;30.280;2022-11-15T12:58:50;101423.31;;;23.49;42.93
41513;BME280;27244;59.940;30.280;2022-11-15T13:04:33;101434.16;;;23.50;42.79
41513;BME280;27244;59.940;30.280;2022-11-15T13:07:01;101434.94;;;23.51;42.70
41513;BME280;27244;59.940;30.280;2022-11-15T13:09:54;101433.53;;;23.63;42.50
41513;BME280;27244;59.940;30.280;2022-11-15T13:12:52;101437.16;;;23.63;42.54
41513;BME280;27244;59.940;30.280;2022-11-15T13:15:38;101443.56;;;23.64;42.31
41513;BME280;27244;59.940;30.280;2022-11-15T13:18:27;101445.59;;;23.63;42.41
41513;BME280;27244;59.940;30.280;2022-11-15T13:20:55;101453.84;;;23.50;42.57
41513;BME280;27244;59.940;30.280;2022-11-15T13:23:22;101455.88;;;23.50;42.27
41513;BME280;27244;59.940;30.280;2022-11-15T13:26:12;101451.28;;;23.60;42.16
41513;BME280;27244;59.940;30.280;2022-11-15T13:28:43;101469.91;;;23.53;42.12
41513;BME280;27244;59.940;30.280;2022-11-15T13:31:34;101464.97;;;23.61;41.83
41513;BME280;27244;59.940;30.280;2022-11-15T13:34:13;101469.09;;;23.53;41.91
41513;BME280;27244;59.940;30.280;2022-11-15T13:36:41;101467.13;;;23.50;41.78
41513;BME280;27244;59.940;30.280;2022-11-15T13:39:14;101475.09;;;23.55;41.75
41513;BME280;27244;59.940;30.280;2022-11-15T13:41:50;101481.25;;;23.73;41.38
41513;BME280;27244;59.940;30.280;2022-11-15T13:44:23;101470.66;;;23.58;41.79
41513;BME280;27244;59.940;30.280;2022-11-15T13:47:01;101474.63;;;23.60;41.56
41513;BME280;27244;59.940;30.280;2022-11-15T13:49:29;101477.19;;;23.51;41.82
41513;BME280;27244;59.940;30.280;2022-11-15T13:51:57;101494.09;;;23.51;41.69
41513;BME280;27244;59.940;30.280;2022-11-15T13:54:29;101483.97;;;23.53;41.47
41513;BME280;27244;59.940;30.280;2022-11-15T13:57:02;101486.00;;;23.53;41.58
41513;BME280;27244;59.940;30.280;2022-11-15T13:59:35;101477.53;;;23.53;41.60
41513;BME280;27244;59.940;30.280;2022-11-15T14:02:18;101485.53;;;23.58;41.51
41513;BME280;27244;59.940;30.280;2022-11-15T14:04:49;101479.19;;;23.50;42.25
41513;BME280;27244;59.940;30.280;2022-11-15T14:07:18;101491.97;;;23.55;41.76
41513;BME280;27244;59.940;30.280;2022-11-15T14:09:46;101491.28;;;23.51;41.56
41513;BME280;27244;59.940;30.280;2022-11-15T14:12:30;101499.16;;;23.60;41.49
41513;BME280;27244;59.940;30.280;2022-11-15T14:15:00;101502.03;;;23.56;41.43
41513;BME280;27244;59.940;30.280;2022-11-15T14:17:36;101514.47;;;23.59;41.33
41513;BME280;27244;59.940;30.280;2022-11-15T14:20:28;101518.47;;;23.61;41.42